Somes Bar, California
Current Conditions -  °F | °C
As of 4:24 AM on Friday 31 Oct 2014 (Local Time) from KACV Reporting Station
Light Rain Light Rain  
Wind Chill: 54°   Ceiling: 1400
Heat Index: 54°   Visibility: 5mi
Dew Point: 52°   Wind: 3mph
Humidity: 93%   Direction: 210°SSW
Pressure: 29.85"   Gusts: NA
Location:  41.38°N, 123.49°W
Report Text: KACV 311124Z AUTO 21003KT 5SM -RA BR OVC014 12/11 A2985 RMK AO2 RAE1056B06 P0002 T01220111
Loading
Personal Weather Stations






























Interactive Weather Map
Tropical Storm Tracking
New forecast layout! Learn more

10-Day Weather Forecast

Advertisements
Track Severe Weather on mobile